Relevés horaires Bierset (Belgique)


Relevés horaires à Bierset - Mercredi 27 Sept. 2023
Heure UTC1 Température [°C] Vent [km/h] Hum. [%] Pres.4 [hPa] Visi. [Km] Nébu. [octa] Préc.5 [mm] Cond.
2m. Res. Ros. Dir.2 Vit. Moy. Raf.3
23:00 20.4 20.4 12.2 S 13.0 13.0 20.4 59 1013.9(-1.0/3h) 30 7/8 -- --
22:00 19.8 19.8 12.5 SSE 7.4 9.3 16.7 63 1014.2(-1.0/3h) 30 6/8 -- --
21:00 19.7 19.7 12.6 SSE 7.4 9.3 22.2 64 1014.8(-0.7/3h) 30 6/8 -- --
20:00 19.9 19.9 12.8 SSE 7.4 7.4 22.2 64 1015(-1.2/3h) 30 6/8 -- --
19:00 19.4 19.4 13.6 SE 5.6 5.6 9.3 69 1015.2(-1.1/3h) 30 6/8 -- --
18:00 20.5 20.5 13.9 SSE 5.6 11.1 16.7 66 1015.5(-1.0/3h) 30 6/8 0/12h
--
17:00 21.9 21.9 13.6 S 5.6 7.4 9.3 59 1016(-0.5/3h) 30 6/8 -- --
16:00 22.7 22.7 13.3 S 3.7 5.6 7.4 55 1016.1(-1.2/3h) 30 6/8 -- --
15:00 23.1 23.1 12.4 S 5.6 11.1 16.7 51 1016.3(-1.9/3h) 30 6/8 -- --
14:00 23.7 23.7 12.6 SSE 9.3 11.1 16.7 50 1016.4(-2.5/3h) 30 6/8 -- --
13:00 23.2 23.2 13.3 S 7.4 9.3 14.8 54 1017.3(-2.2/3h) 30 6/8 -- --
12:00 23.1 23.1 13.1 S 9.3 9.3 18.5 53 1018.3(-1.1/3h) 30 6/8 0/6h
--
11:00 20.9 20.9 12.9 SSE 5.6 5.6 13.0 60 1019.1(-0.7/3h) 30 6/8 -- --
10:00 20.1 20.1 12.8 SO 3.7 7.4 11.1 63 1019.8(-0.1/3h) 30 5/8 -- --
09:00 17.0 17.0 11.4 SSE 7.4 9.3 18.5 70 1019.9(-0.4/3h) 30 5/8 -- --
08:00 14.6 14.5 10.8 SE 7.4 9.3 13.0 78 1020.2(-0.2/3h) 30 5/8 -- --
07:00 13.6 13 10.3 SE 9.3 9.3 14.8 80 1020.4(-0.1/3h) 30 5/8 -- --
06:00 13.3 13.3 10.4 S 3.7 9.3 20.4 83 1020.6(0.0/3h) 30 5/8 0/12h
--
05:00 14.1 14.1 10.7 SSE 5.6 7.4 13.0 80 1020.5(-0.2/3h) 30 5/8 -- --
04:00 14.3 14.2 10.7 SSE 7.4 7.4 13.0 79 1020.5(-0.6/3h) 30 3/8 -- --
03:00 14.3 14.3 11.2 SSE 5.6 9.3 20.4 82 1020.5(0.1/3h) 30 4/8 -- --
02:00 14.1 13.9 11.5 SE 7.4 7.4 11.1 84 1020.7(0.2/3h) 30 1/8 -- --
01:00 15.3 15.3 11.2 S 3.7 7.4 20.4 77 1021(0.0/3h) 30 1/8 -- --
00:00 15.6 15.6 11.6 SSE 7.4 7.4 20.4 77 1020.5(0.2/3h) 30 2/8 0/6h
0/24h
--

1 Coordinated Universal Time. Actuellement il est 00:00 locale et 22:00 UTC.

2 Le vent souffle depuis la direction indiquée vers la direction oposée.

3 Les rafales max. sont disponible 40 min après l'heure du relevé.

4 Pour les stations d'altitude (plus de 600m) le géopotentiel du niveau le plus proche de la pression obligatoire est indiqué.

5 Les stations disposant d'un diffuseur peuvent indiquer "trace". Cela signifie que des précipitations ont touchés le sol mais que la quantité est inférieure à 0.1 mm.

Récapitulatif de la journée
Température [°C] Vent [km/h] Ensoleillement4 [h] Precipitations totale5 [mm] Pression [Hpa]
Min1 Max.2 Moy.3 Max. Min Max.
12.9 23.9 8.6 22.2 0 h 0 min 0 1013.9 1021.0

1 Température minimale relevée entre 18:00 UTC la veille et 18:00 UTC le jour donné.

2 Température maximale relevée entre 06:00 UTC le jour donné et 06:00 UTC le lendemain.

3 Vent moyen de la journée basé sur les relevés horaires.

4 Ensoleillement en heures relevé entre 06:00 UTC la veille et 06:00 UTC le jour donné.

5 Précipitations totales tombées entre 06:00 UTC la jour donné et 06:00 UTC le lendemain.

Graphiques horaires